sensor_id;sensor_type;location;lat;lon;timestamp;P1;durP1;ratioP1;P2;durP2;ratioP2
23745;SDS011;12053;48.878;9.632;2022-08-19T00:01:22;14.98;;;13.38;;
23745;SDS011;12053;48.878;9.632;2022-08-19T00:03:58;15.27;;;13.77;;
23745;SDS011;12053;48.878;9.632;2022-08-19T00:06:26;15.20;;;13.52;;
23745;SDS011;12053;48.878;9.632;2022-08-19T00:08:54;15.00;;;13.60;;
23745;SDS011;12053;48.878;9.632;2022-08-19T00:11:22;15.77;;;13.70;;
23745;SDS011;12053;48.878;9.632;2022-08-19T00:13:51;15.52;;;13.90;;
23745;SDS011;12053;48.878;9.632;2022-08-19T00:16:18;17.20;;;14.85;;
23745;SDS011;12053;48.878;9.632;2022-08-19T00:18:51;15.80;;;14.30;;
23745;SDS011;12053;48.878;9.632;2022-08-19T00:21:19;16.17;;;14.68;;
23745;SDS011;12053;48.878;9.632;2022-08-19T00:23:46;18.13;;;15.10;;
23745;SDS011;12053;48.878;9.632;2022-08-19T00:26:14;16.27;;;14.70;;
23745;SDS011;12053;48.878;9.632;2022-08-19T00:28:41;17.65;;;14.75;;
23745;SDS011;12053;48.878;9.632;2022-08-19T00:31:08;16.52;;;14.77;;
23745;SDS011;12053;48.878;9.632;2022-08-19T00:33:36;17.45;;;14.93;;
23745;SDS011;12053;48.878;9.632;2022-08-19T00:36:05;16.55;;;14.95;;
23745;SDS011;12053;48.878;9.632;2022-08-19T00:38:33;16.08;;;14.48;;
23745;SDS011;12053;48.878;9.632;2022-08-19T00:41:06;16.00;;;14.32;;
23745;SDS011;12053;48.878;9.632;2022-08-19T00:43:33;16.73;;;15.13;;
23745;SDS011;12053;48.878;9.632;2022-08-19T00:46:01;16.90;;;15.00;;
23745;SDS011;12053;48.878;9.632;2022-08-19T00:48:31;17.45;;;15.57;;
23745;SDS011;12053;48.878;9.632;2022-08-19T00:50:59;16.80;;;15.15;;
23745;SDS011;12053;48.878;9.632;2022-08-19T00:53:27;17.40;;;15.73;;
23745;SDS011;12053;48.878;9.632;2022-08-19T00:55:56;16.80;;;15.20;;
23745;SDS011;12053;48.878;9.632;2022-08-19T00:58:26;17.13;;;15.38;;
23745;SDS011;12053;48.878;9.632;2022-08-19T01:00:53;16.33;;;14.73;;
23745;SDS011;12053;48.878;9.632;2022-08-19T01:03:21;16.42;;;14.32;;
23745;SDS011;12053;48.878;9.632;2022-08-19T01:05:49;16.95;;;15.25;;
23745;SDS011;12053;48.878;9.632;2022-08-19T01:08:18;16.70;;;15.00;;
23745;SDS011;12053;48.878;9.632;2022-08-19T01:10:56;16.27;;;14.57;;
23745;SDS011;12053;48.878;9.632;2022-08-19T01:13:25;16.05;;;14.45;;
23745;SDS011;12053;48.878;9.632;2022-08-19T01:16:10;18.10;;;15.93;;
23745;SDS011;12053;48.878;9.632;2022-08-19T01:18:38;17.38;;;15.27;;
23745;SDS011;12053;48.878;9.632;2022-08-19T01:23:52;16.60;;;14.90;;
23745;SDS011;12053;48.878;9.632;2022-08-19T01:26:21;15.68;;;13.95;;
23745;SDS011;12053;48.878;9.632;2022-08-19T01:28:50;18.00;;;14.98;;
23745;SDS011;12053;48.878;9.632;2022-08-19T01:31:20;16.73;;;15.02;;
23745;SDS011;12053;48.878;9.632;2022-08-19T01:33:53;16.73;;;15.02;;
23745;SDS011;12053;48.878;9.632;2022-08-19T01:36:23;15.68;;;14.07;;
23745;SDS011;12053;48.878;9.632;2022-08-19T01:38:52;16.42;;;14.75;;
23745;SDS011;12053;48.878;9.632;2022-08-19T01:41:19;16.40;;;14.70;;
23745;SDS011;12053;48.878;9.632;2022-08-19T01:43:49;15.77;;;14.18;;
23745;SDS011;12053;48.878;9.632;2022-08-19T01:46:37;16.13;;;14.52;;
23745;SDS011;12053;48.878;9.632;2022-08-19T01:49:04;15.90;;;14.30;;
23745;SDS011;12053;48.878;9.632;2022-08-19T01:51:32;16.65;;;15.00;;
23745;SDS011;12053;48.878;9.632;2022-08-19T01:54:05;16.52;;;14.95;;
23745;SDS011;12053;48.878;9.632;2022-08-19T01:56:32;17.05;;;14.85;;
23745;SDS011;12053;48.878;9.632;2022-08-19T01:59:00;17.83;;;16.05;;
23745;SDS011;12053;48.878;9.632;2022-08-19T02:01:28;17.33;;;15.52;;
23745;SDS011;12053;48.878;9.632;2022-08-19T02:03:58;15.90;;;14.40;;
23745;SDS011;12053;48.878;9.632;2022-08-19T02:06:27;16.83;;;15.10;;
23745;SDS011;12053;48.878;9.632;2022-08-19T02:08:54;17.20;;;15.50;;
23745;SDS011;12053;48.878;9.632;2022-08-19T02:11:23;17.00;;;15.40;;
23745;SDS011;12053;48.878;9.632;2022-08-19T02:13:53;17.23;;;15.32;;
23745;SDS011;12053;48.878;9.632;2022-08-19T02:16:20;18.65;;;16.35;;
23745;SDS011;12053;48.878;9.632;2022-08-19T02:18:48;18.35;;;15.65;;
23745;SDS011;12053;48.878;9.632;2022-08-19T02:21:16;17.70;;;16.02;;
23745;SDS011;12053;48.878;9.632;2022-08-19T02:23:43;17.08;;;14.80;;
23745;SDS011;12053;48.878;9.632;2022-08-19T02:26:11;16.77;;;15.07;;
23745;SDS011;12053;48.878;9.632;2022-08-19T02:28:39;17.15;;;15.02;;
23745;SDS011;12053;48.878;9.632;2022-08-19T02:31:10;16.80;;;14.57;;
23745;SDS011;12053;48.878;9.632;2022-08-19T02:33:38;16.95;;;15.25;;
23745;SDS011;12053;48.878;9.632;2022-08-19T02:36:05;18.20;;;16.25;;
23745;SDS011;12053;48.878;9.632;2022-08-19T02:38:33;17.83;;;15.65;;
23745;SDS011;12053;48.878;9.632;2022-08-19T02:41:02;16.80;;;15.00;;
23745;SDS011;12053;48.878;9.632;2022-08-19T02:43:30;19.60;;;17.63;;
23745;SDS011;12053;48.878;9.632;2022-08-19T02:46:00;18.58;;;16.63;;
23745;SDS011;12053;48.878;9.632;2022-08-19T02:48:27;18.50;;;16.48;;
23745;SDS011;12053;48.878;9.632;2022-08-19T02:50:54;19.73;;;17.10;;
23745;SDS011;12053;48.878;9.632;2022-08-19T02:53:22;20.08;;;17.00;;
23745;SDS011;12053;48.878;9.632;2022-08-19T02:55:50;20.00;;;17.90;;
23745;SDS011;12053;48.878;9.632;2022-08-19T02:58:18;19.92;;;17.80;;
23745;SDS011;12053;48.878;9.632;2022-08-19T03:00:46;23.73;;;18.83;;
23745;SDS011;12053;48.878;9.632;2022-08-19T03:03:15;19.52;;;17.42;;
23745;SDS011;12053;48.878;9.632;2022-08-19T03:05:42;20.27;;;18.13;;
23745;SDS011;12053;48.878;9.632;2022-08-19T03:08:22;20.17;;;18.13;;
23745;SDS011;12053;48.878;9.632;2022-08-19T03:10:50;20.85;;;18.75;;
23745;SDS011;12053;48.878;9.632;2022-08-19T03:13:19;20.15;;;18.05;;
23745;SDS011;12053;48.878;9.632;2022-08-19T03:15:47;20.98;;;18.88;;
23745;SDS011;12053;48.878;9.632;2022-08-19T03:18:14;22.98;;;19.00;;
23745;SDS011;12053;48.878;9.632;2022-08-19T03:20:51;20.63;;;17.98;;
23745;SDS011;12053;48.878;9.632;2022-08-19T03:23:20;20.55;;;18.40;;
23745;SDS011;12053;48.878;9.632;2022-08-19T03:25:48;20.20;;;18.15;;
23745;SDS011;12053;48.878;9.632;2022-08-19T03:28:35;20.23;;;18.23;;
23745;SDS011;12053;48.878;9.632;2022-08-19T03:31:05;21.67;;;19.40;;
23745;SDS011;12053;48.878;9.632;2022-08-19T03:33:53;21.10;;;18.90;;
23745;SDS011;12053;48.878;9.632;2022-08-19T03:36:23;20.95;;;18.30;;
23745;SDS011;12053;48.878;9.632;2022-08-19T03:38:57;20.45;;;18.45;;
23745;SDS011;12053;48.878;9.632;2022-08-19T03:41:27;20.73;;;18.63;;
23745;SDS011;12053;48.878;9.632;2022-08-19T03:44:10;21.10;;;18.77;;
23745;SDS011;12053;48.878;9.632;2022-08-19T03:46:44;22.27;;;19.38;;
23745;SDS011;12053;48.878;9.632;2022-08-19T03:49:11;21.25;;;18.95;;
23745;SDS011;12053;48.878;9.632;2022-08-19T03:51:40;20.92;;;18.77;;
23745;SDS011;12053;48.878;9.632;2022-08-19T03:54:10;22.05;;;19.75;;
23745;SDS011;12053;48.878;9.632;2022-08-19T03:56:38;20.75;;;18.65;;
23745;SDS011;12053;48.878;9.632;2022-08-19T03:59:06;22.35;;;20.05;;
23745;SDS011;12053;48.878;9.632;2022-08-19T04:01:34;21.83;;;19.15;;
23745;SDS011;12053;48.878;9.632;2022-08-19T04:04:02;22.35;;;19.20;;
23745;SDS011;12053;48.878;9.632;2022-08-19T04:06:31;21.55;;;19.35;;
23745;SDS011;12053;48.878;9.632;2022-08-19T04:08:59;22.08;;;19.83;;
23745;SDS011;12053;48.878;9.632;2022-08-19T04:11:28;20.70;;;18.58;;
23745;SDS011;12053;48.878;9.632;2022-08-19T04:14:10;22.20;;;19.65;;
23745;SDS011;12053;48.878;9.632;2022-08-19T04:16:37;23.45;;;20.05;;
23745;SDS011;12053;48.878;9.632;2022-08-19T04:19:05;23.05;;;20.55;;
23745;SDS011;12053;48.878;9.632;2022-08-19T04:21:33;24.60;;;19.38;;
23745;SDS011;12053;48.878;9.632;2022-08-19T04:24:00;21.90;;;19.60;;
23745;SDS011;12053;48.878;9.632;2022-08-19T04:26:33;23.25;;;19.45;;
23745;SDS011;12053;48.878;9.632;2022-08-19T04:29:04;24.02;;;21.02;;
23745;SDS011;12053;48.878;9.632;2022-08-19T04:31:37;22.85;;;20.45;;
23745;SDS011;12053;48.878;9.632;2022-08-19T04:34:05;21.80;;;19.55;;
23745;SDS011;12053;48.878;9.632;2022-08-19T04:36:33;22.70;;;20.05;;
23745;SDS011;12053;48.878;9.632;2022-08-19T04:39:03;24.88;;;21.20;;
23745;SDS011;12053;48.878;9.632;2022-08-19T04:41:31;22.75;;;20.02;;
23745;SDS011;12053;48.878;9.632;2022-08-19T04:44:17;25.98;;;22.20;;
23745;SDS011;12053;48.878;9.632;2022-08-19T04:46:45;24.48;;;21.52;;
23745;SDS011;12053;48.878;9.632;2022-08-19T04:49:17;23.75;;;21.27;;
23745;SDS011;12053;48.878;9.632;2022-08-19T04:51:45;23.42;;;20.95;;
23745;SDS011;12053;48.878;9.632;2022-08-19T04:54:14;22.08;;;19.73;;
23745;SDS011;12053;48.878;9.632;2022-08-19T04:57:01;24.23;;;21.55;;
23745;SDS011;12053;48.878;9.632;2022-08-19T04:59:31;23.92;;;20.90;;
23745;SDS011;12053;48.878;9.632;2022-08-19T05:01:59;22.05;;;19.75;;
23745;SDS011;12053;48.878;9.632;2022-08-19T05:04:26;23.65;;;21.15;;
23745;SDS011;12053;48.878;9.632;2022-08-19T05:06:58;26.38;;;20.75;;
23745;SDS011;12053;48.878;9.632;2022-08-19T05:09:27;24.35;;;21.42;;
23745;SDS011;12053;48.878;9.632;2022-08-19T05:12:14;25.60;;;21.58;;
23745;SDS011;12053;48.878;9.632;2022-08-19T05:14:42;24.88;;;19.90;;
23745;SDS011;12053;48.878;9.632;2022-08-19T05:17:11;26.63;;;21.77;;
23745;SDS011;12053;48.878;9.632;2022-08-19T05:19:58;24.55;;;21.95;;
23745;SDS011;12053;48.878;9.632;2022-08-19T05:22:44;23.55;;;20.90;;
23745;SDS011;12053;48.878;9.632;2022-08-19T05:25:14;23.30;;;19.52;;
23745;SDS011;12053;48.878;9.632;2022-08-19T05:27:41;25.73;;;21.67;;
23745;SDS011;12053;48.878;9.632;2022-08-19T05:30:10;24.65;;;21.77;;
23745;SDS011;12053;48.878;9.632;2022-08-19T05:32:38;25.83;;;20.13;;
23745;SDS011;12053;48.878;9.632;2022-08-19T05:35:05;24.23;;;21.10;;
23745;SDS011;12053;48.878;9.632;2022-08-19T05:37:32;22.05;;;19.70;;
23745;SDS011;12053;48.878;9.632;2022-08-19T05:40:00;23.92;;;21.33;;
23745;SDS011;12053;48.878;9.632;2022-08-19T05:42:27;25.25;;;21.00;;
23745;SDS011;12053;48.878;9.632;2022-08-19T05:44:54;26.35;;;21.77;;
23745;SDS011;12053;48.878;9.632;2022-08-19T05:47:22;24.52;;;21.17;;
23745;SDS011;12053;48.878;9.632;2022-08-19T05:49:50;26.80;;;22.27;;
23745;SDS011;12053;48.878;9.632;2022-08-19T05:52:17;25.35;;;22.02;;
23745;SDS011;12053;48.878;9.632;2022-08-19T05:54:51;26.42;;;23.50;;
23745;SDS011;12053;48.878;9.632;2022-08-19T05:57:20;24.08;;;21.45;;
23745;SDS011;12053;48.878;9.632;2022-08-19T05:59:47;27.08;;;21.25;;
23745;SDS011;12053;48.878;9.632;2022-08-19T06:02:24;26.42;;;22.63;;
23745;SDS011;12053;48.878;9.632;2022-08-19T06:04:52;24.88;;;21.08;;
23745;SDS011;12053;48.878;9.632;2022-08-19T06:07:19;25.90;;;21.45;;
23745;SDS011;12053;48.878;9.632;2022-08-19T06:09:46;31.63;;;25.63;;
23745;SDS011;12053;48.878;9.632;2022-08-19T06:12:27;28.48;;;23.42;;
23745;SDS011;12053;48.878;9.632;2022-08-19T06:14:57;27.35;;;22.10;;
23745;SDS011;12053;48.878;9.632;2022-08-19T06:17:26;28.77;;;25.15;;
23745;SDS011;12053;48.878;9.632;2022-08-19T06:19:56;29.70;;;25.98;;
23745;SDS011;12053;48.878;9.632;2022-08-19T06:22:25;29.60;;;25.63;;
23745;SDS011;12053;48.878;9.632;2022-08-19T06:24:52;31.67;;;24.67;;
23745;SDS011;12053;48.878;9.632;2022-08-19T06:27:20;29.77;;;25.63;;
23745;SDS011;12053;48.878;9.632;2022-08-19T06:29:47;34.00;;;26.27;;
23745;SDS011;12053;48.878;9.632;2022-08-19T06:32:15;37.05;;;27.63;;
23745;SDS011;12053;48.878;9.632;2022-08-19T06:34:43;30.48;;;26.08;;
23745;SDS011;12053;48.878;9.632;2022-08-19T06:37:10;30.05;;;24.95;;
23745;SDS011;12053;48.878;9.632;2022-08-19T06:39:39;31.02;;;25.30;;
23745;SDS011;12053;48.878;9.632;2022-08-19T06:42:06;30.25;;;25.73;;
23745;SDS011;12053;48.878;9.632;2022-08-19T06:44:39;31.48;;;25.67;;
23745;SDS011;12053;48.878;9.632;2022-08-19T06:47:09;28.40;;;25.02;;
23745;SDS011;12053;48.878;9.632;2022-08-19T06:49:40;35.85;;;27.05;;
23745;SDS011;12053;48.878;9.632;2022-08-19T06:52:08;32.47;;;25.15;;
23745;SDS011;12053;48.878;9.632;2022-08-19T06:54:39;30.52;;;25.50;;
23745;SDS011;12053;48.878;9.632;2022-08-19T06:57:22;35.05;;;26.40;;
23745;SDS011;12053;48.878;9.632;2022-08-19T06:59:49;36.08;;;27.15;;
23745;SDS011;12053;48.878;9.632;2022-08-19T07:02:17;34.47;;;26.17;;
23745;SDS011;12053;48.878;9.632;2022-08-19T07:04:44;37.38;;;27.92;;
23745;SDS011;12053;48.878;9.632;2022-08-19T07:07:12;39.05;;;29.65;;
23745;SDS011;12053;48.878;9.632;2022-08-19T07:09:46;34.75;;;27.25;;
23745;SDS011;12053;48.878;9.632;2022-08-19T07:12:25;34.83;;;27.45;;
23745;SDS011;12053;48.878;9.632;2022-08-19T07:14:54;40.70;;;27.98;;
23745;SDS011;12053;48.878;9.632;2022-08-19T07:17:22;36.33;;;25.98;;
23745;SDS011;12053;48.878;9.632;2022-08-19T07:19:50;37.75;;;27.02;;
23745;SDS011;12053;48.878;9.632;2022-08-19T07:22:20;33.25;;;25.73;;
23745;SDS011;12053;48.878;9.632;2022-08-19T07:24:49;35.67;;;28.48;;
23745;SDS011;12053;48.878;9.632;2022-08-19T07:27:17;35.80;;;26.92;;
23745;SDS011;12053;48.878;9.632;2022-08-19T07:29:50;32.13;;;26.27;;
23745;SDS011;12053;48.878;9.632;2022-08-19T07:32:22;33.70;;;26.02;;
23745;SDS011;12053;48.878;9.632;2022-08-19T07:34:51;34.03;;;27.15;;
23745;SDS011;12053;48.878;9.632;2022-08-19T07:37:19;30.35;;;25.10;;
23745;SDS011;12053;48.878;9.632;2022-08-19T07:39:46;32.95;;;26.15;;
23745;SDS011;12053;48.878;9.632;2022-08-19T07:42:14;32.53;;;25.92;;
23745;SDS011;12053;48.878;9.632;2022-08-19T07:44:41;35.60;;;26.77;;
23745;SDS011;12053;48.878;9.632;2022-08-19T07:47:16;37.67;;;26.42;;
23745;SDS011;12053;48.878;9.632;2022-08-19T07:50:03;35.70;;;27.13;;
23745;SDS011;12053;48.878;9.632;2022-08-19T07:52:33;33.90;;;27.52;;
23745;SDS011;12053;48.878;9.632;2022-08-19T07:55:03;35.15;;;28.10;;
23745;SDS011;12053;48.878;9.632;2022-08-19T07:57:30;37.25;;;27.83;;
23745;SDS011;12053;48.878;9.632;2022-08-19T07:59:58;36.65;;;28.65;;
23745;SDS011;12053;48.878;9.632;2022-08-19T08:02:25;36.58;;;27.70;;
23745;SDS011;12053;48.878;9.632;2022-08-19T08:04:52;37.75;;;29.30;;
23745;SDS011;12053;48.878;9.632;2022-08-19T08:07:38;37.55;;;28.58;;
23745;SDS011;12053;48.878;9.632;2022-08-19T08:10:24;34.83;;;28.73;;
23745;SDS011;12053;48.878;9.632;2022-08-19T08:12:52;33.33;;;26.73;;
23745;SDS011;12053;48.878;9.632;2022-08-19T08:15:35;37.60;;;29.45;;
23745;SDS011;12053;48.878;9.632;2022-08-19T08:18:08;37.13;;;29.92;;
23745;SDS011;12053;48.878;9.632;2022-08-19T08:20:35;35.53;;;27.75;;
23745;SDS011;12053;48.878;9.632;2022-08-19T08:23:02;37.90;;;28.88;;
23745;SDS011;12053;48.878;9.632;2022-08-19T08:25:48;36.33;;;27.27;;
23745;SDS011;12053;48.878;9.632;2022-08-19T08:28:16;37.55;;;27.08;;
23745;SDS011;12053;48.878;9.632;2022-08-19T08:30:44;36.90;;;27.95;;
23745;SDS011;12053;48.878;9.632;2022-08-19T08:33:19;31.48;;;26.83;;
23745;SDS011;12053;48.878;9.632;2022-08-19T08:35:59;35.20;;;27.20;;
23745;SDS011;12053;48.878;9.632;2022-08-19T08:38:29;35.55;;;27.45;;
23745;SDS011;12053;48.878;9.632;2022-08-19T08:41:17;32.45;;;26.50;;
23745;SDS011;12053;48.878;9.632;2022-08-19T08:43:47;35.20;;;26.05;;
23745;SDS011;12053;48.878;9.632;2022-08-19T08:51:34;35.40;;;28.15;;
23745;SDS011;12053;48.878;9.632;2022-08-19T08:54:05;37.63;;;26.85;;
23745;SDS011;12053;48.878;9.632;2022-08-19T08:56:37;33.55;;;26.17;;
23745;SDS011;12053;48.878;9.632;2022-08-19T08:59:05;32.78;;;25.75;;
23745;SDS011;12053;48.878;9.632;2022-08-19T09:01:35;32.25;;;26.73;;
23745;SDS011;12053;48.878;9.632;2022-08-19T09:04:04;31.98;;;25.75;;
23745;SDS011;12053;48.878;9.632;2022-08-19T09:06:37;33.95;;;27.10;;
23745;SDS011;12053;48.878;9.632;2022-08-19T09:14:23;30.63;;;23.75;;
23745;SDS011;12053;48.878;9.632;2022-08-19T09:17:13;35.55;;;26.10;;
23745;SDS011;12053;48.878;9.632;2022-08-19T09:19:51;31.23;;;25.25;;
23745;SDS011;12053;48.878;9.632;2022-08-19T09:22:19;34.78;;;25.95;;
23745;SDS011;12053;48.878;9.632;2022-08-19T09:24:51;32.70;;;25.75;;
23745;SDS011;12053;48.878;9.632;2022-08-19T09:27:19;30.60;;;24.15;;
23745;SDS011;12053;48.878;9.632;2022-08-19T09:29:47;32.42;;;24.48;;
23745;SDS011;12053;48.878;9.632;2022-08-19T09:32:15;29.23;;;24.23;;
23745;SDS011;12053;48.878;9.632;2022-08-19T09:34:52;31.83;;;25.08;;
23745;SDS011;12053;48.878;9.632;2022-08-19T09:37:21;34.75;;;26.60;;
23745;SDS011;12053;48.878;9.632;2022-08-19T09:39:50;33.35;;;25.65;;
23745;SDS011;12053;48.878;9.632;2022-08-19T09:42:17;33.80;;;27.15;;
23745;SDS011;12053;48.878;9.632;2022-08-19T09:45:00;32.83;;;25.50;;
23745;SDS011;12053;48.878;9.632;2022-08-19T09:47:35;33.67;;;26.90;;
23745;SDS011;12053;48.878;9.632;2022-08-19T09:50:06;34.08;;;26.55;;
23745;SDS011;12053;48.878;9.632;2022-08-19T09:52:35;35.22;;;28.58;;
23745;SDS011;12053;48.878;9.632;2022-08-19T09:55:07;33.38;;;27.58;;
23745;SDS011;12053;48.878;9.632;2022-08-19T09:57:35;31.58;;;25.48;;
23745;SDS011;12053;48.878;9.632;2022-08-19T10:00:05;32.28;;;26.17;;
23745;SDS011;12053;48.878;9.632;2022-08-19T10:02:34;32.17;;;25.13;;
23745;SDS011;12053;48.878;9.632;2022-08-19T10:05:01;32.10;;;25.67;;
23745;SDS011;12053;48.878;9.632;2022-08-19T10:07:52;30.17;;;25.58;;
23745;SDS011;12053;48.878;9.632;2022-08-19T10:10:22;29.30;;;25.10;;
23745;SDS011;12053;48.878;9.632;2022-08-19T10:12:50;28.92;;;24.60;;
23745;SDS011;12053;48.878;9.632;2022-08-19T10:15:17;32.22;;;27.42;;
23745;SDS011;12053;48.878;9.632;2022-08-19T10:17:54;32.67;;;26.88;;
23745;SDS011;12053;48.878;9.632;2022-08-19T10:20:23;33.42;;;26.20;;
23745;SDS011;12053;48.878;9.632;2022-08-19T10:22:51;29.75;;;25.45;;
23745;SDS011;12053;48.878;9.632;2022-08-19T10:25:18;30.80;;;24.08;;
23745;SDS011;12053;48.878;9.632;2022-08-19T10:27:46;31.65;;;25.40;;
23745;SDS011;12053;48.878;9.632;2022-08-19T10:30:21;29.63;;;25.92;;
23745;SDS011;12053;48.878;9.632;2022-08-19T10:32:50;33.45;;;25.83;;
23745;SDS011;12053;48.878;9.632;2022-08-19T10:35:17;30.60;;;25.05;;
23745;SDS011;12053;48.878;9.632;2022-08-19T10:37:48;30.58;;;25.73;;
23745;SDS011;12053;48.878;9.632;2022-08-19T10:40:23;29.90;;;25.63;;
23745;SDS011;12053;48.878;9.632;2022-08-19T10:42:50;31.65;;;26.35;;
23745;SDS011;12053;48.878;9.632;2022-08-19T10:45:17;33.88;;;25.35;;
23745;SDS011;12053;48.878;9.632;2022-08-19T10:47:45;28.83;;;24.45;;
23745;SDS011;12053;48.878;9.632;2022-08-19T10:50:12;31.30;;;25.35;;
23745;SDS011;12053;48.878;9.632;2022-08-19T10:53:03;30.85;;;23.90;;
23745;SDS011;12053;48.878;9.632;2022-08-19T10:55:35;31.10;;;24.50;;
23745;SDS011;12053;48.878;9.632;2022-08-19T10:58:21;29.95;;;24.42;;
23745;SDS011;12053;48.878;9.632;2022-08-19T11:00:56;28.88;;;23.60;;
23745;SDS011;12053;48.878;9.632;2022-08-19T11:03:23;31.30;;;24.70;;
23745;SDS011;12053;48.878;9.632;2022-08-19T11:05:58;31.75;;;24.58;;
23745;SDS011;12053;48.878;9.632;2022-08-19T11:08:25;28.80;;;23.50;;
23745;SDS011;12053;48.878;9.632;2022-08-19T11:10:53;28.48;;;22.63;;
23745;SDS011;12053;48.878;9.632;2022-08-19T11:13:27;27.38;;;22.85;;
23745;SDS011;12053;48.878;9.632;2022-08-19T11:16:02;26.23;;;22.95;;
23745;SDS011;12053;48.878;9.632;2022-08-19T11:18:37;29.50;;;24.15;;
23745;SDS011;12053;48.878;9.632;2022-08-19T11:21:08;30.83;;;24.98;;
23745;SDS011;12053;48.878;9.632;2022-08-19T11:23:36;27.77;;;24.83;;
23745;SDS011;12053;48.878;9.632;2022-08-19T11:26:04;30.00;;;24.63;;
23745;SDS011;12053;48.878;9.632;2022-08-19T11:28:31;30.85;;;25.73;;
23745;SDS011;12053;48.878;9.632;2022-08-19T11:30:59;30.23;;;24.88;;
23745;SDS011;12053;48.878;9.632;2022-08-19T11:33:26;30.30;;;23.50;;
23745;SDS011;12053;48.878;9.632;2022-08-19T11:35:53;30.85;;;24.92;;
23745;SDS011;12053;48.878;9.632;2022-08-19T11:38:20;33.17;;;25.88;;
23745;SDS011;12053;48.878;9.632;2022-08-19T11:40:53;39.72;;;28.70;;
23745;SDS011;12053;48.878;9.632;2022-08-19T11:43:21;33.63;;;26.40;;
23745;SDS011;12053;48.878;9.632;2022-08-19T11:45:48;35.72;;;27.35;;
23745;SDS011;12053;48.878;9.632;2022-08-19T11:48:15;43.22;;;30.52;;
23745;SDS011;12053;48.878;9.632;2022-08-19T11:50:43;39.83;;;30.23;;
23745;SDS011;12053;48.878;9.632;2022-08-19T11:53:10;40.28;;;29.45;;
23745;SDS011;12053;48.878;9.632;2022-08-19T11:55:38;36.22;;;28.83;;
23745;SDS011;12053;48.878;9.632;2022-08-19T11:58:09;32.63;;;28.67;;
23745;SDS011;12053;48.878;9.632;2022-08-19T12:00:44;36.78;;;27.48;;
23745;SDS011;12053;48.878;9.632;2022-08-19T12:03:12;33.83;;;26.95;;
23745;SDS011;12053;48.878;9.632;2022-08-19T12:05:40;33.63;;;27.75;;
23745;SDS011;12053;48.878;9.632;2022-08-19T12:08:07;32.67;;;26.50;;
23745;SDS011;12053;48.878;9.632;2022-08-19T12:10:35;32.10;;;25.98;;
23745;SDS011;12053;48.878;9.632;2022-08-19T12:13:02;34.75;;;28.02;;
23745;SDS011;12053;48.878;9.632;2022-08-19T12:15:30;32.97;;;28.00;;
23745;SDS011;12053;48.878;9.632;2022-08-19T12:18:02;30.55;;;25.10;;
23745;SDS011;12053;48.878;9.632;2022-08-19T12:20:30;27.85;;;24.60;;
23745;SDS011;12053;48.878;9.632;2022-08-19T12:23:01;31.85;;;27.55;;
23745;SDS011;12053;48.878;9.632;2022-08-19T12:25:29;31.88;;;28.38;;
23745;SDS011;12053;48.878;9.632;2022-08-19T12:27:57;30.52;;;26.15;;
23745;SDS011;12053;48.878;9.632;2022-08-19T12:30:25;31.02;;;26.45;;
23745;SDS011;12053;48.878;9.632;2022-08-19T12:32:52;30.48;;;25.60;;
23745;SDS011;12053;48.878;9.632;2022-08-19T12:35:19;34.42;;;28.10;;
23745;SDS011;12053;48.878;9.632;2022-08-19T12:37:47;26.75;;;23.55;;
23745;SDS011;12053;48.878;9.632;2022-08-19T12:40:22;29.95;;;26.75;;
23745;SDS011;12053;48.878;9.632;2022-08-19T12:42:51;31.23;;;26.15;;
23745;SDS011;12053;48.878;9.632;2022-08-19T12:45:19;30.25;;;25.50;;
23745;SDS011;12053;48.878;9.632;2022-08-19T12:47:47;28.95;;;24.52;;
23745;SDS011;12053;48.878;9.632;2022-08-19T12:50:14;30.98;;;24.67;;
23745;SDS011;12053;48.878;9.632;2022-08-19T12:52:42;28.73;;;24.85;;
23745;SDS011;12053;48.878;9.632;2022-08-19T12:55:09;30.23;;;26.30;;
23745;SDS011;12053;48.878;9.632;2022-08-19T12:57:37;32.33;;;26.95;;
23745;SDS011;12053;48.878;9.632;2022-08-19T13:00:06;31.92;;;26.67;;
23745;SDS011;12053;48.878;9.632;2022-08-19T13:02:40;34.83;;;27.35;;
23745;SDS011;12053;48.878;9.632;2022-08-19T13:05:08;44.28;;;32.17;;
23745;SDS011;12053;48.878;9.632;2022-08-19T13:07:36;84.60;;;52.42;;
23745;SDS011;12053;48.878;9.632;2022-08-19T13:10:05;47.10;;;36.35;;
23745;SDS011;12053;48.878;9.632;2022-08-19T13:12:32;43.25;;;35.70;;
23745;SDS011;12053;48.878;9.632;2022-08-19T13:14:59;42.88;;;34.70;;
23745;SDS011;12053;48.878;9.632;2022-08-19T13:17:27;39.15;;;32.60;;
23745;SDS011;12053;48.878;9.632;2022-08-19T13:19:55;38.25;;;31.08;;
23745;SDS011;12053;48.878;9.632;2022-08-19T13:22:22;39.50;;;34.25;;
23745;SDS011;12053;48.878;9.632;2022-08-19T13:24:51;42.75;;;34.53;;
23745;SDS011;12053;48.878;9.632;2022-08-19T13:27:18;41.22;;;31.42;;
23745;SDS011;12053;48.878;9.632;2022-08-19T13:29:46;42.15;;;32.55;;
23745;SDS011;12053;48.878;9.632;2022-08-19T13:32:31;39.20;;;32.60;;
23745;SDS011;12053;48.878;9.632;2022-08-19T13:35:17;45.15;;;34.65;;
23745;SDS011;12053;48.878;9.632;2022-08-19T13:37:45;44.15;;;34.53;;
23745;SDS011;12053;48.878;9.632;2022-08-19T13:40:13;47.50;;;36.40;;
23745;SDS011;12053;48.878;9.632;2022-08-19T13:42:43;48.30;;;36.15;;
23745;SDS011;12053;48.878;9.632;2022-08-19T13:45:12;47.30;;;37.25;;
23745;SDS011;12053;48.878;9.632;2022-08-19T13:47:41;47.95;;;36.83;;
23745;SDS011;12053;48.878;9.632;2022-08-19T13:50:11;46.47;;;37.95;;
23745;SDS011;12053;48.878;9.632;2022-08-19T13:52:39;47.22;;;37.05;;
23745;SDS011;12053;48.878;9.632;2022-08-19T13:55:06;51.33;;;36.45;;
23745;SDS011;12053;48.878;9.632;2022-08-19T13:57:34;49.35;;;35.90;;
23745;SDS011;12053;48.878;9.632;2022-08-19T14:00:02;45.42;;;35.90;;
23745;SDS011;12053;48.878;9.632;2022-08-19T14:02:30;43.80;;;34.70;;
23745;SDS011;12053;48.878;9.632;2022-08-19T14:04:58;45.17;;;35.47;;
23745;SDS011;12053;48.878;9.632;2022-08-19T14:07:25;48.78;;;36.20;;
23745;SDS011;12053;48.878;9.632;2022-08-19T14:09:52;46.17;;;35.75;;
23745;SDS011;12053;48.878;9.632;2022-08-19T14:12:20;39.72;;;32.17;;
23745;SDS011;12053;48.878;9.632;2022-08-19T14:14:54;43.28;;;35.60;;
23745;SDS011;12053;48.878;9.632;2022-08-19T14:17:21;39.05;;;32.60;;
23745;SDS011;12053;48.878;9.632;2022-08-19T14:19:48;34.78;;;29.05;;
23745;SDS011;12053;48.878;9.632;2022-08-19T14:22:15;30.42;;;27.13;;
23745;SDS011;12053;48.878;9.632;2022-08-19T14:24:47;28.40;;;24.38;;
23745;SDS011;12053;48.878;9.632;2022-08-19T14:27:16;26.02;;;23.27;;
23745;SDS011;12053;48.878;9.632;2022-08-19T14:29:43;24.73;;;22.02;;
23745;SDS011;12053;48.878;9.632;2022-08-19T14:32:11;24.48;;;21.88;;
23745;SDS011;12053;48.878;9.632;2022-08-19T14:34:42;24.00;;;21.50;;
23745;SDS011;12053;48.878;9.632;2022-08-19T14:37:12;23.17;;;20.70;;
23745;SDS011;12053;48.878;9.632;2022-08-19T14:39:43;22.85;;;20.45;;
23745;SDS011;12053;48.878;9.632;2022-08-19T14:42:11;23.17;;;20.40;;
23745;SDS011;12053;48.878;9.632;2022-08-19T14:44:41;24.38;;;21.35;;
23745;SDS011;12053;48.878;9.632;2022-08-19T14:47:08;26.58;;;23.80;;
23745;SDS011;12053;48.878;9.632;2022-08-19T14:49:36;27.52;;;23.77;;
23745;SDS011;12053;48.878;9.632;2022-08-19T14:52:10;28.60;;;25.13;;